createdAt,value
2022-08-19T00:01:30.793Z,22.80
2022-08-19T00:03:59.626Z,23.35
2022-08-19T00:06:28.139Z,22.30
2022-08-19T00:08:55.075Z,30.48
2022-08-19T00:11:25.971Z,24.60
2022-08-19T00:13:53.374Z,24.95
2022-08-19T00:16:26.536Z,24.52
2022-08-19T00:18:57.160Z,23.90
2022-08-19T00:21:25.218Z,24.55
2022-08-19T00:23:52.856Z,27.52
2022-08-19T00:26:20.130Z,29.42
2022-08-19T00:28:48.081Z,24.48
2022-08-19T00:31:14.900Z,22.80
2022-08-19T00:33:41.707Z,24.88
2022-08-19T00:36:09.671Z,30.73
2022-08-19T00:38:38.383Z,24.08
2022-08-19T00:41:08.584Z,28.08
2022-08-19T00:43:35.487Z,28.38
2022-08-19T00:46:05.772Z,26.98
2022-08-19T00:48:34.518Z,26.17
2022-08-19T00:51:02.150Z,25.65
2022-08-19T00:53:32.907Z,26.05
2022-08-19T00:56:01.336Z,26.80
2022-08-19T00:58:31.463Z,25.88
2022-08-19T01:00:58.397Z,25.42
2022-08-19T01:03:25.221Z,21.30
2022-08-19T01:05:53.469Z,26.45
2022-08-19T01:08:20.924Z,22.85
2022-08-19T01:10:51.377Z,24.27
2022-08-19T01:13:23.252Z,20.60
2022-08-19T01:15:54.941Z,26.33
2022-08-19T01:18:22.027Z,27.40
2022-08-19T01:20:49.431Z,24.17
2022-08-19T01:23:16.427Z,26.77
2022-08-19T01:25:47.277Z,22.92
2022-08-19T01:28:33.894Z,24.48
2022-08-19T01:31:01.404Z,25.00
2022-08-19T01:33:35.173Z,31.42
2022-08-19T01:36:11.652Z,27.55
2022-08-19T01:38:44.268Z,26.17
2022-08-19T01:41:13.356Z,27.27
2022-08-19T01:44:17.061Z,27.88
2022-08-19T01:46:27.257Z,27.23
2022-08-19T01:48:53.960Z,28.77
2022-08-19T01:51:20.854Z,27.88
2022-08-19T01:53:52.161Z,29.25
2022-08-19T01:56:20.004Z,30.58
2022-08-19T01:58:55.495Z,25.48
2022-08-19T02:01:22.500Z,25.55
2022-08-19T02:03:49.333Z,26.10
2022-08-19T02:06:17.994Z,28.38
2022-08-19T02:08:47.116Z,30.55
2022-08-19T02:11:28.055Z,28.65
2022-08-19T02:13:55.758Z,30.60
2022-08-19T02:16:23.054Z,28.25
2022-08-19T02:18:50.007Z,28.02
2022-08-19T02:21:18.617Z,36.92
2022-08-19T02:23:46.390Z,32.50
2022-08-19T02:26:13.955Z,32.80
2022-08-19T02:28:42.168Z,29.77
2022-08-19T02:31:18.709Z,31.50
2022-08-19T02:33:46.302Z,31.88
2022-08-19T02:36:14.178Z,30.95
2022-08-19T02:38:43.423Z,32.22
2022-08-19T02:41:26.629Z,41.30
2022-08-19T02:44:28.584Z,32.17
2022-08-19T02:46:42.100Z,33.72
2022-08-19T02:49:09.098Z,30.98
2022-08-19T02:51:42.852Z,36.63
2022-08-19T02:54:11.025Z,31.33
2022-08-19T02:56:39.313Z,36.58
2022-08-19T02:59:09.204Z,32.65
2022-08-19T03:01:38.692Z,36.67
2022-08-19T03:04:06.821Z,38.10
2022-08-19T03:06:36.966Z,36.53
2022-08-19T03:09:04.125Z,36.75
2022-08-19T03:11:32.897Z,34.03
2022-08-19T03:14:01.213Z,37.20
2022-08-19T03:16:29.882Z,34.25
2022-08-19T03:19:01.084Z,34.40
2022-08-19T03:21:30.345Z,35.85
2022-08-19T03:23:59.004Z,40.25
2022-08-19T03:26:25.885Z,32.88
2022-08-19T03:28:58.584Z,37.45
2022-08-19T03:31:44.283Z,32.72
2022-08-19T03:34:16.546Z,32.67
2022-08-19T03:36:43.444Z,38.13
2022-08-19T03:39:11.321Z,39.10
2022-08-19T03:41:45.060Z,32.30
2022-08-19T03:44:16.783Z,33.25
2022-08-19T03:46:46.780Z,37.53
2022-08-19T03:49:14.361Z,34.00
2022-08-19T03:51:42.711Z,46.17
2022-08-19T03:54:13.785Z,33.70
2022-08-19T03:56:41.728Z,36.75
2022-08-19T03:59:10.235Z,38.40
2022-08-19T04:01:37.074Z,47.33
2022-08-19T04:04:04.807Z,37.58
2022-08-19T04:06:38.859Z,30.73
2022-08-19T04:09:09.599Z,42.55
2022-08-19T04:11:55.016Z,41.15
2022-08-19T04:14:24.953Z,43.42
2022-08-19T04:16:52.889Z,39.67
2022-08-19T04:19:21.151Z,39.30
2022-08-19T04:21:51.283Z,39.22
2022-08-19T04:24:19.283Z,39.90
2022-08-19T04:26:47.060Z,43.50
2022-08-19T04:29:17.357Z,37.53
2022-08-19T04:31:46.052Z,38.50
2022-08-19T04:34:14.699Z,41.78
2022-08-19T04:36:43.163Z,47.22
2022-08-19T04:39:13.856Z,38.10
2022-08-19T04:41:59.311Z,35.03
2022-08-19T04:44:26.663Z,40.15
2022-08-19T04:46:53.796Z,40.92
2022-08-19T04:49:23.270Z,42.70
2022-08-19T04:51:52.284Z,40.42
2022-08-19T04:54:37.353Z,43.90
2022-08-19T04:57:10.628Z,40.90
2022-08-19T04:59:39.163Z,38.15
2022-08-19T05:02:06.449Z,40.83
2022-08-19T05:04:33.857Z,41.80
2022-08-19T05:07:02.291Z,42.88
2022-08-19T05:09:52.533Z,39.13
2022-08-19T05:12:17.333Z,38.85
2022-08-19T05:14:45.921Z,45.72
2022-08-19T05:17:27.084Z,42.78
2022-08-19T05:20:14.656Z,38.25
2022-08-19T05:22:42.368Z,41.75
2022-08-19T05:25:14.876Z,48.53
2022-08-19T05:27:42.513Z,43.92
2022-08-19T05:30:10.165Z,40.67
2022-08-19T05:32:37.088Z,38.70
2022-08-19T05:35:05.274Z,42.35
2022-08-19T05:37:32.234Z,41.47
2022-08-19T05:39:59.074Z,39.33
2022-08-19T05:42:27.495Z,44.05
2022-08-19T05:44:54.574Z,43.22
2022-08-19T05:47:21.674Z,37.28
2022-08-19T05:49:50.691Z,38.05
2022-08-19T05:52:18.842Z,40.38
2022-08-19T05:54:50.867Z,39.33
2022-08-19T05:57:19.373Z,41.70
2022-08-19T05:59:53.299Z,37.05
2022-08-19T06:02:29.287Z,35.53
2022-08-19T06:04:56.082Z,38.60
2022-08-19T06:07:23.027Z,36.13
2022-08-19T06:10:00.125Z,42.10
2022-08-19T06:12:35.449Z,37.90
2022-08-19T06:17:32.272Z,37.88
2022-08-19T06:20:00.027Z,34.95
2022-08-19T06:22:27.603Z,38.20
2022-08-19T06:24:55.540Z,44.03
2022-08-19T06:27:22.874Z,61.53
2022-08-19T06:29:49.814Z,49.20
2022-08-19T06:32:19.272Z,71.55
2022-08-19T06:34:46.197Z,45.75
2022-08-19T06:37:13.558Z,39.70
2022-08-19T06:39:42.618Z,35.22
2022-08-19T06:42:12.857Z,32.95
2022-08-19T06:44:42.476Z,34.67
2022-08-19T06:47:14.968Z,33.35
2022-08-19T06:49:50.825Z,32.50
2022-08-19T06:52:18.742Z,32.58
2022-08-19T06:54:56.115Z,31.42
2022-08-19T06:57:24.954Z,35.60
2022-08-19T06:59:52.439Z,31.33
2022-08-19T07:02:19.925Z,30.58
2022-08-19T07:04:46.748Z,31.23
2022-08-19T07:07:20.203Z,33.63
2022-08-19T07:09:57.940Z,34.40
2022-08-19T07:12:36.197Z,33.20
2022-08-19T07:15:06.339Z,28.58
2022-08-19T07:17:34.466Z,31.42
2022-08-19T07:20:05.366Z,32.67
2022-08-19T07:22:35.034Z,28.25
2022-08-19T07:25:03.907Z,29.33
2022-08-19T07:27:31.273Z,29.25
2022-08-19T07:30:00.877Z,33.72
2022-08-19T07:32:27.980Z,30.05
2022-08-19T07:34:56.376Z,31.60
2022-08-19T07:37:32.029Z,29.25
2022-08-19T07:39:59.955Z,86.22
2022-08-19T07:42:27.584Z,275.00
2022-08-19T07:44:54.377Z,85.93
2022-08-19T07:47:49.207Z,29.35
2022-08-19T07:50:10.103Z,40.40
2022-08-19T07:52:39.531Z,34.78
2022-08-19T07:55:40.082Z,32.22
2022-08-19T07:57:58.814Z,31.35
2022-08-19T08:00:26.127Z,37.58
2022-08-19T08:02:55.356Z,32.08
2022-08-19T08:05:43.669Z,32.50
2022-08-19T08:08:27.515Z,27.63
2022-08-19T08:10:56.905Z,29.83
2022-08-19T08:13:24.934Z,42.35
2022-08-19T08:15:52.936Z,38.55
2022-08-19T08:18:21.893Z,34.95
2022-08-19T08:20:55.064Z,35.83
2022-08-19T08:23:26.317Z,28.02
2022-08-19T08:25:55.975Z,33.20
2022-08-19T08:28:24.012Z,33.63
2022-08-19T08:30:51.529Z,26.48
2022-08-19T08:33:34.261Z,25.23
2022-08-19T08:36:04.797Z,27.08
2022-08-19T08:38:39.012Z,28.60
2022-08-19T08:41:31.465Z,23.77
2022-08-19T08:43:59.718Z,23.05
2022-08-19T08:46:59.980Z,22.00
2022-08-19T08:49:52.448Z,23.33
2022-08-19T08:52:32.235Z,26.92
2022-08-19T08:55:02.355Z,24.10
2022-08-19T08:57:40.832Z,20.23
2022-08-19T09:00:31.199Z,18.60
2022-08-19T09:02:59.349Z,26.27
2022-08-19T09:05:41.564Z,21.08
2022-08-19T09:08:44.338Z,21.20
2022-08-19T09:11:17.191Z,22.38
2022-08-19T09:14:49.867Z,23.05
2022-08-19T09:17:19.591Z,21.95
2022-08-19T09:19:52.653Z,21.80
2022-08-19T09:22:25.701Z,23.10
2022-08-19T09:24:54.105Z,20.02
2022-08-19T09:27:22.310Z,23.00
2022-08-19T09:30:15.878Z,25.00
2022-08-19T09:32:44.053Z,19.25
2022-08-19T09:35:18.093Z,22.15
2022-08-19T09:37:45.300Z,21.35
2022-08-19T09:40:13.360Z,27.42
2022-08-19T09:42:50.274Z,20.25
2022-08-19T09:45:22.807Z,22.00
2022-08-19T09:47:52.213Z,19.77
2022-08-19T09:50:21.800Z,20.67
2022-08-19T09:52:57.221Z,16.17
2022-08-19T09:55:31.840Z,17.05
2022-08-19T09:58:01.587Z,16.95
2022-08-19T10:00:28.693Z,12.70
2022-08-19T10:02:55.487Z,14.18
2022-08-19T10:05:42.701Z,14.15
2022-08-19T10:08:14.612Z,11.48
2022-08-19T10:10:46.773Z,13.00
2022-08-19T10:13:16.014Z,11.35
2022-08-19T10:15:47.090Z,13.70
2022-08-19T10:18:17.748Z,11.80
2022-08-19T10:20:46.640Z,9.05
2022-08-19T10:23:20.822Z,10.30
2022-08-19T10:25:48.754Z,9.82
2022-08-19T10:28:15.615Z,11.95
2022-08-19T10:30:57.963Z,11.63
2022-08-19T10:33:38.592Z,11.77
2022-08-19T10:36:19.921Z,14.05
2022-08-19T10:38:54.821Z,14.45
2022-08-19T10:41:30.033Z,11.93
2022-08-19T10:44:03.934Z,11.65
2022-08-19T10:46:35.034Z,15.15
2022-08-19T10:49:03.723Z,15.60
2022-08-19T10:51:49.657Z,14.77
2022-08-19T10:54:16.751Z,12.07
2022-08-19T10:56:53.142Z,10.95
2022-08-19T10:59:33.805Z,14.13
2022-08-19T11:02:10.574Z,11.77
2022-08-19T11:04:38.445Z,13.75
2022-08-19T11:07:06.886Z,9.50
2022-08-19T11:09:41.749Z,13.10
2022-08-19T11:12:10.655Z,9.90
2022-08-19T11:14:38.649Z,13.02
2022-08-19T11:17:06.654Z,10.73
2022-08-19T11:19:34.164Z,11.60
2022-08-19T11:22:05.375Z,12.43
2022-08-19T11:24:32.817Z,11.13
2022-08-19T11:27:10.065Z,12.10
2022-08-19T11:29:39.539Z,7.68
2022-08-19T11:32:11.118Z,10.80
2022-08-19T11:34:38.155Z,12.38
2022-08-19T11:37:05.288Z,18.55
2022-08-19T11:39:33.539Z,7.70
2022-08-19T11:42:02.021Z,7.88
2022-08-19T11:44:31.192Z,7.97
2022-08-19T11:46:58.620Z,10.45
2022-08-19T11:49:37.130Z,9.07
2022-08-19T11:52:04.349Z,8.10
2022-08-19T11:54:31.868Z,11.18
2022-08-19T11:56:58.654Z,8.75
2022-08-19T11:59:27.740Z,15.40
2022-08-19T12:01:54.492Z,10.52
2022-08-19T12:04:21.547Z,15.82
2022-08-19T12:06:48.425Z,12.25
2022-08-19T12:09:16.451Z,14.85
2022-08-19T12:11:43.219Z,8.32
2022-08-19T12:14:14.170Z,8.63
2022-08-19T12:16:51.473Z,9.90
2022-08-19T12:19:26.299Z,8.73
2022-08-19T12:21:56.420Z,9.98
2022-08-19T12:24:25.162Z,9.13
2022-08-19T12:26:52.472Z,11.30
2022-08-19T12:29:23.728Z,9.38
2022-08-19T12:31:51.333Z,12.70
2022-08-19T12:34:18.379Z,9.75
2022-08-19T12:36:45.249Z,10.70
2022-08-19T12:39:12.101Z,10.10
2022-08-19T12:41:45.095Z,9.68
2022-08-19T12:44:21.400Z,13.05
2022-08-19T12:46:57.558Z,14.48
2022-08-19T12:49:52.270Z,10.07
2022-08-19T12:52:16.677Z,12.15
2022-08-19T12:54:55.330Z,9.55
2022-08-19T12:57:31.573Z,10.27
2022-08-19T13:00:01.924Z,10.77
2022-08-19T13:02:33.160Z,13.50
2022-08-19T13:05:09.446Z,9.07
2022-08-19T13:07:40.167Z,7.90
2022-08-19T13:10:09.585Z,11.45
2022-08-19T13:12:36.818Z,11.18
2022-08-19T13:15:11.087Z,8.38
2022-08-19T13:17:39.527Z,10.35
2022-08-19T13:20:09.153Z,9.57
2022-08-19T13:22:37.121Z,10.65
2022-08-19T13:25:06.279Z,7.70
2022-08-19T13:27:33.649Z,8.68
2022-08-19T13:30:20.277Z,8.02
2022-08-19T13:33:07.902Z,9.52
2022-08-19T13:35:35.183Z,10.95
2022-08-19T13:38:11.797Z,10.48
2022-08-19T13:40:41.170Z,10.63
2022-08-19T13:43:17.746Z,11.88
2022-08-19T13:45:51.255Z,10.25
2022-08-19T13:48:18.393Z,11.10
2022-08-19T13:50:47.808Z,15.45
2022-08-19T13:53:15.814Z,10.55
2022-08-19T13:55:44.393Z,9.75
2022-08-19T13:58:12.378Z,10.75
2022-08-19T14:01:00.395Z,11.90
2022-08-19T14:03:28.915Z,11.65
2022-08-19T14:05:56.306Z,9.10
2022-08-19T14:08:23.680Z,9.85
2022-08-19T14:10:51.085Z,9.00
2022-08-19T14:13:22.134Z,8.98
2022-08-19T14:15:53.267Z,10.93
2022-08-19T14:18:20.205Z,10.18
2022-08-19T14:20:47.079Z,10.00
2022-08-19T14:23:14.587Z,9.40
2022-08-19T14:25:43.573Z,11.50
2022-08-19T14:28:10.958Z,13.57
2022-08-19T14:30:38.866Z,11.73
2022-08-19T14:33:08.147Z,13.98
2022-08-19T14:35:35.649Z,7.82
2022-08-19T14:38:06.488Z,7.72
2022-08-19T14:40:33.457Z,9.70
2022-08-19T14:43:04.684Z,10.80
2022-08-19T14:45:34.025Z,11.15
2022-08-19T14:48:01.283Z,9.98
2022-08-19T14:50:29.352Z,9.07
2022-08-19T14:53:09.339Z,8.98
2022-08-19T14:55:42.829Z,7.63
2022-08-19T14:58:09.919Z,7.63
2022-08-19T15:00:58.296Z,7.22
2022-08-19T15:03:25.213Z,6.68
2022-08-19T15:05:52.000Z,8.25
2022-08-19T15:08:18.865Z,7.65
2022-08-19T15:10:47.417Z,5.53
2022-08-19T15:13:14.155Z,6.30
2022-08-19T15:15:40.866Z,5.72
2022-08-19T15:18:07.614Z,8.82
2022-08-19T15:20:34.397Z,8.10
2022-08-19T15:23:01.632Z,7.13
2022-08-19T15:25:29.388Z,6.38
2022-08-19T15:27:56.358Z,5.97
2022-08-19T15:30:25.941Z,4.80
2022-08-19T15:32:55.704Z,4.40
2022-08-19T15:35:24.138Z,8.30
2022-08-19T15:37:52.523Z,5.93
2022-08-19T15:40:20.823Z,6.20
2022-08-19T15:42:49.732Z,7.75
2022-08-19T15:45:18.591Z,5.20
2022-08-19T15:47:45.498Z,5.60
2022-08-19T15:50:23.699Z,7.25
2022-08-19T15:52:56.785Z,6.65
2022-08-19T15:55:32.615Z,6.32
2022-08-19T15:58:29.729Z,6.20
2022-08-19T16:01:21.173Z,5.57
2022-08-19T16:04:11.156Z,8.05
2022-08-19T16:06:54.264Z,4.90
2022-08-19T16:09:27.236Z,4.60
2022-08-19T16:11:57.093Z,4.43
2022-08-19T16:14:28.724Z,5.13
2022-08-19T16:16:56.752Z,6.82
2022-08-19T16:19:24.578Z,6.43
2022-08-19T16:21:53.935Z,5.50
2022-08-19T16:24:23.733Z,7.22
2022-08-19T16:26:50.533Z,6.57
2022-08-19T16:29:21.992Z,4.75
2022-08-19T16:32:09.888Z,6.18
2022-08-19T16:34:38.093Z,4.15
2022-08-19T16:37:05.065Z,4.28
2022-08-19T16:39:32.245Z,4.03
2022-08-19T16:41:59.325Z,3.83
2022-08-19T16:44:29.857Z,6.35
2022-08-19T16:46:59.497Z,3.97
2022-08-19T16:49:54.191Z,4.60
2022-08-19T16:52:16.102Z,3.92
2022-08-19T16:54:43.561Z,4.22
2022-08-19T16:57:12.075Z,6.13
2022-08-19T16:59:48.314Z,7.07
2022-08-19T17:02:17.440Z,4.30
2022-08-19T17:04:44.216Z,3.78
2022-08-19T17:07:22.751Z,4.25
2022-08-19T17:09:50.496Z,4.45
2022-08-19T17:12:17.527Z,4.75
2022-08-19T17:14:46.019Z,6.60
2022-08-19T17:17:12.978Z,7.35
2022-08-19T17:19:42.148Z,3.67
2022-08-19T17:22:10.196Z,5.22
2022-08-19T17:24:42.569Z,10.07
2022-08-19T17:27:09.382Z,7.05
2022-08-19T17:29:36.118Z,9.25
2022-08-19T17:32:03.123Z,5.32
2022-08-19T17:34:30.379Z,7.32
2022-08-19T17:36:57.176Z,7.13
2022-08-19T17:39:25.297Z,4.75
2022-08-19T17:41:53.346Z,6.47
2022-08-19T17:44:20.049Z,6.22
2022-08-19T17:46:46.898Z,7.45
2022-08-19T17:49:14.381Z,9.25
2022-08-19T17:51:45.110Z,7.93
2022-08-19T17:54:18.778Z,8.60
2022-08-19T17:56:46.330Z,9.77
2022-08-19T17:59:14.524Z,10.20
2022-08-19T18:01:53.530Z,8.52
2022-08-19T18:04:23.041Z,8.65
2022-08-19T18:06:53.283Z,7.82
2022-08-19T18:09:41.890Z,10.85
2022-08-19T18:12:13.543Z,7.47
2022-08-19T18:14:41.273Z,10.93
2022-08-19T18:17:17.181Z,7.32
2022-08-19T18:19:44.884Z,7.25
2022-08-19T18:22:22.391Z,9.00
2022-08-19T18:24:49.192Z,6.95
2022-08-19T18:27:16.092Z,8.30
2022-08-19T18:29:43.332Z,8.13
2022-08-19T18:32:13.357Z,14.38
2022-08-19T18:34:41.850Z,9.60
2022-08-19T18:37:08.728Z,10.35
2022-08-19T18:39:53.950Z,7.78
2022-08-19T18:42:39.426Z,10.63
2022-08-19T18:45:25.206Z,12.57
2022-08-19T18:48:26.814Z,12.38
2022-08-19T18:50:56.613Z,8.85
2022-08-19T18:53:23.657Z,12.02
2022-08-19T18:55:53.785Z,6.53
2022-08-19T18:58:26.470Z,7.15
2022-08-19T19:00:55.815Z,8.68
2022-08-19T19:03:24.329Z,6.50
2022-08-19T19:05:52.688Z,8.13
2022-08-19T19:08:19.658Z,7.75
2022-08-19T19:10:47.653Z,8.57
2022-08-19T19:13:17.799Z,6.38
2022-08-19T19:15:44.656Z,8.70
2022-08-19T19:18:13.422Z,4.93
2022-08-19T19:20:40.896Z,5.60
2022-08-19T19:23:08.347Z,6.85
2022-08-19T19:25:50.609Z,8.13
2022-08-19T19:28:25.146Z,4.85
2022-08-19T19:30:53.835Z,3.83
2022-08-19T19:33:20.635Z,4.55
2022-08-19T19:35:47.503Z,5.47
2022-08-19T19:38:14.584Z,5.55
2022-08-19T19:40:41.302Z,4.88
2022-08-19T19:43:08.314Z,3.22
2022-08-19T19:45:35.357Z,3.47
2022-08-19T19:48:02.156Z,4.93
2022-08-19T19:50:30.206Z,4.00
2022-08-19T19:52:57.851Z,3.10
2022-08-19T19:55:26.389Z,9.27
2022-08-19T19:57:54.101Z,2.60
2022-08-19T20:00:21.638Z,3.05
2022-08-19T20:02:50.645Z,4.38
2022-08-19T20:05:21.061Z,8.38
2022-08-19T20:08:06.456Z,2.97
2022-08-19T20:10:33.500Z,3.60
2022-08-19T20:13:04.911Z,2.08
2022-08-19T20:15:32.203Z,4.80
2022-08-19T20:18:00.856Z,1.90
2022-08-19T20:20:27.969Z,2.00
2022-08-19T20:22:55.134Z,4.35
2022-08-19T20:25:22.100Z,2.60
2022-08-19T20:27:49.478Z,3.35
2022-08-19T20:30:20.146Z,2.03
2022-08-19T20:32:47.993Z,1.90
2022-08-19T20:35:16.386Z,5.20
2022-08-19T20:37:43.283Z,3.75
2022-08-19T20:40:11.291Z,2.25
2022-08-19T20:42:40.565Z,1.65
2022-08-19T20:45:21.543Z,5.30
2022-08-19T20:47:59.313Z,1.38
2022-08-19T20:50:26.187Z,2.45
2022-08-19T20:52:56.794Z,2.63
2022-08-19T20:55:23.711Z,1.20
2022-08-19T20:57:51.540Z,3.15
2022-08-19T21:00:18.916Z,2.22
2022-08-19T21:02:46.867Z,6.15
2022-08-19T21:05:13.828Z,2.17
2022-08-19T21:07:40.649Z,1.48
2022-08-19T21:10:07.890Z,2.17
2022-08-19T21:12:34.791Z,1.27
2022-08-19T21:15:01.568Z,3.58
2022-08-19T21:17:28.373Z,4.20
2022-08-19T21:19:55.356Z,2.03
2022-08-19T21:22:22.173Z,3.05
2022-08-19T21:24:48.930Z,2.40
2022-08-19T21:27:15.718Z,4.90
2022-08-19T21:29:43.024Z,6.22
2022-08-19T21:32:13.980Z,2.05
2022-08-19T21:34:43.841Z,3.10
2022-08-19T21:37:24.747Z,1.67
2022-08-19T21:39:53.248Z,1.58
2022-08-19T21:42:20.403Z,2.90
2022-08-19T21:44:47.310Z,2.22
2022-08-19T21:47:14.038Z,1.13
2022-08-19T21:49:40.928Z,1.02
2022-08-19T21:52:08.230Z,2.25
2022-08-19T21:54:38.206Z,1.85
2022-08-19T21:57:10.676Z,2.35
2022-08-19T21:59:43.471Z,1.00
2022-08-19T22:02:20.045Z,3.33
2022-08-19T22:04:48.943Z,6.40
2022-08-19T22:07:15.808Z,1.70
2022-08-19T22:09:47.959Z,0.70
2022-08-19T22:12:27.690Z,1.05
2022-08-19T22:14:55.236Z,1.70
2022-08-19T22:17:22.903Z,4.47
2022-08-19T22:19:50.937Z,14.27
2022-08-19T22:22:26.562Z,5.72
2022-08-19T22:24:55.400Z,1.35
2022-08-19T22:27:22.292Z,1.02
2022-08-19T22:29:52.662Z,1.80
2022-08-19T22:32:28.318Z,1.52
2022-08-19T22:34:57.876Z,2.67
2022-08-19T22:37:25.006Z,1.30
2022-08-19T22:39:51.796Z,1.88
2022-08-19T22:42:20.223Z,2.67
2022-08-19T22:44:46.933Z,1.33
2022-08-19T22:47:13.739Z,5.40
2022-08-19T22:49:40.610Z,2.72
2022-08-19T22:52:19.319Z,6.55
2022-08-19T22:54:58.736Z,1.20
2022-08-19T22:57:25.518Z,2.00
2022-08-19T22:59:53.040Z,3.03
2022-08-19T23:02:26.857Z,1.10
2022-08-19T23:04:54.453Z,0.95
2022-08-19T23:07:23.780Z,2.83
2022-08-19T23:09:50.967Z,5.10
2022-08-19T23:12:30.628Z,2.30
2022-08-19T23:15:05.690Z,1.02
2022-08-19T23:17:32.399Z,1.00
2022-08-19T23:19:59.877Z,2.33
2022-08-19T23:22:27.043Z,1.50
2022-08-19T23:24:56.183Z,1.73
2022-08-19T23:27:43.515Z,3.67
2022-08-19T23:30:26.558Z,1.67
2022-08-19T23:32:58.957Z,1.08
2022-08-19T23:35:26.597Z,1.48
2022-08-19T23:37:53.528Z,1.58
2022-08-19T23:40:21.845Z,4.25
2022-08-19T23:42:51.587Z,1.27
2022-08-19T23:45:23.930Z,4.20
2022-08-19T23:47:53.248Z,3.08
2022-08-19T23:50:21.267Z,3.25
2022-08-19T23:52:53.645Z,1.23
2022-08-19T23:55:23.644Z,1.70
2022-08-19T23:57:50.742Z,2.50
